createdAt,value
2023-03-26T00:05:53.768Z,20.05
2023-03-26T00:20:55.514Z,20.01
2023-03-26T00:35:57.256Z,19.97
2023-03-26T00:50:58.778Z,19.94
2023-03-26T01:06:00.236Z,19.90
2023-03-26T01:21:01.727Z,19.95
2023-03-26T01:36:03.244Z,20.02
2023-03-26T01:51:04.767Z,20.07
2023-03-26T02:06:06.353Z,20.09
2023-03-26T02:21:07.885Z,20.12
2023-03-26T02:36:09.482Z,20.15
2023-03-26T02:51:10.965Z,20.16
2023-03-26T03:06:12.492Z,20.18
2023-03-26T03:21:13.952Z,20.19
2023-03-26T03:36:19.715Z,20.20
2023-03-26T03:51:22.568Z,20.25
2023-03-26T04:06:24.218Z,20.25
2023-03-26T04:21:25.847Z,20.27
2023-03-26T04:36:27.338Z,20.29
2023-03-26T04:51:28.977Z,20.31
2023-03-26T05:06:30.568Z,20.35
2023-03-26T05:21:32.142Z,20.42
2023-03-26T05:36:33.693Z,20.45
2023-03-26T05:51:35.209Z,20.49
2023-03-26T06:06:36.723Z,20.56
2023-03-26T06:21:38.280Z,20.55
2023-03-26T06:36:39.974Z,20.60
2023-03-26T06:51:41.652Z,20.64
2023-03-26T07:06:43.224Z,20.67
2023-03-26T07:21:44.767Z,20.66
2023-03-26T07:36:46.285Z,20.61
2023-03-26T07:51:47.786Z,20.56
2023-03-26T08:06:49.333Z,20.63
2023-03-26T08:21:51.102Z,20.81
2023-03-26T08:36:52.770Z,20.81
2023-03-26T08:51:54.470Z,20.88
2023-03-26T09:06:56.293Z,20.96
2023-03-26T09:21:57.909Z,20.98
2023-03-26T09:36:59.479Z,20.98
2023-03-26T09:52:01.012Z,21.02
2023-03-26T10:07:02.952Z,21.00
2023-03-26T10:22:04.523Z,20.98
2023-03-26T10:37:06.047Z,20.97
2023-03-26T10:52:07.586Z,20.96
2023-03-26T11:07:09.131Z,20.96
2023-03-26T11:22:10.881Z,21.00
2023-03-26T11:37:12.416Z,21.04
2023-03-26T11:52:13.905Z,21.06
2023-03-26T12:07:15.463Z,21.07
2023-03-26T12:22:17.022Z,21.14
2023-03-26T12:37:18.810Z,21.19
2023-03-26T12:52:21.076Z,21.27
2023-03-26T13:07:22.731Z,21.32
2023-03-26T13:22:24.232Z,21.34
2023-03-26T13:37:25.821Z,21.36
2023-03-26T13:52:27.383Z,21.46
2023-03-26T14:07:28.848Z,21.53
2023-03-26T14:22:30.282Z,21.59
2023-03-26T14:37:31.755Z,21.65
2023-03-26T14:52:33.226Z,21.70
2023-03-26T15:07:34.786Z,21.73
2023-03-26T15:22:36.340Z,21.77
2023-03-26T15:37:37.803Z,21.81
2023-03-26T15:52:39.351Z,21.84
2023-03-26T16:07:40.878Z,21.88
2023-03-26T16:22:43.850Z,21.91
2023-03-26T16:37:45.581Z,21.95
2023-03-26T16:52:47.163Z,21.94
2023-03-26T17:07:48.702Z,21.94
2023-03-26T17:22:50.709Z,21.96
2023-03-26T17:37:52.296Z,21.97
2023-03-26T17:52:56.637Z,21.92
2023-03-26T18:07:58.138Z,21.89
2023-03-26T18:22:59.669Z,21.80
2023-03-26T18:38:01.186Z,21.75
2023-03-26T18:53:02.824Z,21.75
2023-03-26T19:08:04.333Z,21.70
2023-03-26T19:23:05.872Z,21.65
2023-03-26T19:38:07.395Z,21.55
2023-03-26T19:53:16.049Z,21.48
2023-03-26T20:08:18.685Z,21.47
2023-03-26T20:23:20.234Z,21.40
2023-03-26T20:38:26.552Z,21.32
2023-03-26T20:53:34.474Z,21.26
2023-03-26T21:08:35.923Z,21.20
2023-03-26T21:23:39.114Z,21.15
2023-03-26T21:38:40.695Z,21.08
2023-03-26T21:53:42.199Z,21.02
2023-03-26T22:08:43.987Z,20.98
2023-03-26T22:23:45.445Z,20.93
2023-03-26T22:38:46.921Z,20.89
2023-03-26T22:53:48.396Z,20.86
2023-03-26T23:08:49.972Z,20.81
2023-03-26T23:23:51.452Z,20.77
2023-03-26T23:38:52.919Z,20.72
2023-03-26T23:53:54.421Z,20.66
